• Join FlightAware (Why Join?)
  • Login
  • US Flag 
05:45PM EST


 

Airport Tracker/Info


-or-


 

Live Flight TrackerFlight Track Log ✈ UAL4305 ✈ 06-Apr-2013 ✈ KIAH - KDFW

Flight Track Log - Related Links

Times and Time Zones

All times are in EDT time to prevent confusion due to time zone crossing. See the UAL4305 flight status page for this flight to view local times or setup timezone preferences in your user account.

Time Position Orientation Groundspeed Altitude Reporting Facility
EDT Latitude Longitude Course Direction KTS MPH feet Rate Location/Type
10:28PM 29.9953 -95.3661 North 168 193 1,000  Level Houston Center
10:28PM 30.0117 -95.3833 318° Northwest 190 219 1,800 1,560 Climbing Houston Center
10:29PM 30.0339 -95.3856 355° North 202 232 2,600 1,740 Climbing Houston Center
10:30PM 30.2545 -95.3161 North  Level FlightAware Approximate
10:30PM 30.1189 -95.3758 North 249 287 4,700  Level Houston Center
10:31PM 30.3448 -95.3048 North  Level FlightAware Approximate
10:31PM 30.1994 -95.3636 North 285 328 7,400  Level Houston Center
10:32PM 30.4354 -95.3000 North  Level FlightAware Approximate
10:32PM 30.2772 -95.3536 North 282 325 9,300  Level Houston Center
10:33PM 30.5263 -95.3000 North  Level FlightAware Approximate
10:33PM 30.3614 -95.3417 North 300 345 10,600  Level Houston Center
10:34PM 30.4514 -95.3294 North 339 390 11,600 1,380 Climbing Houston Center
10:35PM 30.5456 -95.3158 North 342 394 13,500 1,860 Climbing Houston Center
10:36PM 30.6381 -95.3033 North 335 386 15,500 1,860 Climbing Houston Center
10:37PM 30.7294 -95.2958 North 327 376 17,400 1,860 Climbing Houston Center
10:38PM 30.8200 -95.2892 North 324 373 19,400 1,680 Climbing Houston Center
10:39PM 30.9106 -95.2842 North 323 372 20,900 780 Climbing Houston Center
10:40PM 31.0111 -95.2769 North 356 410 21,000  Climbing Houston Center
10:41PM 31.1239 -95.2728 North 395 455 21,000  Level Houston Center
10:42PM 31.2064 -95.3197 334° Northwest 394 453 21,000  Level Fort Worth Center
10:43PM 31.3017 -95.4075 322° Northwest 387 445 21,000  Level Fort Worth Center
10:44PM 31.3928 -95.4933 321° Northwest 404 465 21,000  Level Fort Worth Center
10:45PM 31.4797 -95.5767 321° Northwest 417 480 21,000  Level Fort Worth Center
10:46PM 31.5686 -95.6603 321° Northwest 417 480 21,000  Level Fort Worth Center
10:47PM 31.6617 -95.7489 321° Northwest 412 474 21,000  Level Fort Worth Center
10:48PM 31.7547 -95.8447 319° Northwest 412 474 21,000  Level Fort Worth Center
10:49PM 31.8392 -95.9264 321° Northwest 412 474 21,000  Level Fort Worth Center
10:50PM 31.9278 -96.0083 322° Northwest 407 468 21,000  Level Fort Worth Center
10:51PM 32.0039 -96.0806 321° Northwest 393 452 21,000  Level Fort Worth Center
10:52PM 32.0881 -96.1628 320° Northwest 393 452 21,000 -240 Level Fort Worth Center
10:53PM 32.1767 -96.2475 321° Northwest 398 458 20,600 -1,380 Descending Fort Worth Center
10:54PM 32.2650 -96.3372 319° Northwest 393 452 18,300 -2,220 Descending Fort Worth Center
10:55PM 32.3408 -96.4103 321° Northwest 388 447 16,200 -2,100 Descending Fort Worth Center
10:56PM 32.4272 -96.5028 318° Northwest 378 435 14,100 -1,920 Descending Fort Worth Center
10:57PM 32.4925 -96.5833 314° West 372 428 12,400 -1,560 Descending Fort Worth Center
10:58PM 32.5725 -96.6789 315° West 372 428 11,000 -720 Descending Fort Worth Center
10:59PM 32.6375 -96.7547 316° Northwest 372 428 11,000  Level Fort Worth Center
11:00PM 32.7153 -96.8481 315° West 367 422 11,000  Level Fort Worth Center
11:00PM 32.7333 -96.8667 319° Northwest 339 390 11,000 -960 Level Dallas / Fort Worth TRACON
11:01PM 32.8167 -96.9000 341° North 303 349 9,800 -1,440 Descending Dallas / Fort Worth TRACON
11:02PM 32.9000 -96.9000 360° North 297 342 8,100 -1,740 Descending Dallas / Fort Worth TRACON
11:03PM 32.9667 -96.9167 348° North 271 312 6,400 -1,740 Descending Dallas / Fort Worth TRACON
11:04PM 33.0500 -96.9333 350° North 261 300 4,700 -1,860 Descending Dallas / Fort Worth TRACON
11:05PM 33.0833 -97.0000 301° West 252 290 2,300 -2,040 Descending Dallas / Fort Worth TRACON